createdAt,value
2018-09-03T00:02:19.766Z,102696.66
2018-09-03T00:04:48.932Z,102697.98
2018-09-03T00:07:18.651Z,102690.02
2018-09-03T00:09:47.945Z,102698.88
2018-09-03T00:12:17.228Z,102700.17
2018-09-03T00:14:46.790Z,102704.13
2018-09-03T00:17:16.190Z,102698.83
2018-09-03T00:19:45.939Z,102699.70
2018-09-03T00:22:15.382Z,102703.22
2018-09-03T00:24:44.894Z,102701.47
2018-09-03T00:27:14.189Z,102700.08
2018-09-03T00:29:43.724Z,102702.30
2018-09-03T00:32:18.409Z,102702.73
2018-09-03T00:34:52.930Z,102698.75
2018-09-03T00:37:27.513Z,102697.83
2018-09-03T00:40:01.810Z,102697.84
2018-09-03T00:42:36.212Z,102702.70
2018-09-03T00:45:11.036Z,102700.47
2018-09-03T00:47:40.682Z,102704.45
2018-09-03T00:50:10.365Z,102704.02
2018-09-03T00:52:39.699Z,102701.37
2018-09-03T00:55:09.061Z,102699.58
2018-09-03T00:57:38.276Z,102699.09
2018-09-03T01:00:07.938Z,102696.88
2018-09-03T01:02:37.404Z,102694.20
2018-09-03T01:05:06.763Z,102697.70
2018-09-03T01:07:36.243Z,102696.83
2018-09-03T01:10:06.046Z,102695.94
2018-09-03T01:12:35.166Z,102696.83
2018-09-03T01:15:05.458Z,102697.70
2018-09-03T01:17:34.834Z,102694.16
2018-09-03T01:20:04.229Z,102695.02
2018-09-03T01:22:33.616Z,102694.97
2018-09-03T01:25:02.622Z,102685.66
2018-09-03T01:27:31.910Z,102679.91
2018-09-03T01:30:01.128Z,102688.77
2018-09-03T01:32:30.155Z,102682.59
2018-09-03T01:34:59.088Z,102685.25
2018-09-03T01:37:28.213Z,102682.57
2018-09-03T01:39:57.690Z,102687.35
2018-09-03T01:42:26.600Z,102683.35
2018-09-03T01:44:55.725Z,102681.53
2018-09-03T01:47:25.218Z,102679.77
2018-09-03T01:49:54.134Z,102676.26
2018-09-03T01:52:23.251Z,102677.95
2018-09-03T01:54:52.272Z,102678.36
2018-09-03T01:57:21.191Z,102674.81
2018-09-03T01:59:50.451Z,102673.89
2018-09-03T02:02:20.034Z,102673.45
2018-09-03T02:04:48.893Z,102671.67
2018-09-03T02:07:18.071Z,102669.91
2018-09-03T02:09:47.411Z,102663.75
2018-09-03T02:12:16.891Z,102663.72
2018-09-03T02:14:45.988Z,102664.58
2018-09-03T02:17:15.509Z,102660.14
2018-09-03T02:19:44.765Z,102658.38
2018-09-03T02:22:14.356Z,102660.17
2018-09-03T02:24:43.767Z,102657.48
2018-09-03T02:27:12.831Z,102527.97
2018-09-03T02:29:42.050Z,102656.59
2018-09-03T02:32:11.089Z,102658.78
2018-09-03T02:34:40.117Z,102653.05
2018-09-03T02:37:09.622Z,102653.08
2018-09-03T02:39:38.766Z,102560.78
2018-09-03T02:42:07.779Z,102643.28
2018-09-03T02:44:37.282Z,102643.25
2018-09-03T02:47:07.079Z,102641.42
2018-09-03T02:49:36.170Z,102637.88
2018-09-03T02:52:05.839Z,102636.13
2018-09-03T02:54:34.855Z,102634.37
2018-09-03T02:57:04.351Z,102640.56
2018-09-03T02:59:33.682Z,102637.88
2018-09-03T03:02:02.611Z,102639.64
2018-09-03T03:04:31.613Z,102637.38
2018-09-03T03:07:01.080Z,102636.48
2018-09-03T03:09:30.527Z,102636.88
2018-09-03T03:11:59.451Z,102633.34
2018-09-03T03:14:28.772Z,102636.02
2018-09-03T03:16:58.223Z,102631.12
2018-09-03T03:19:27.445Z,102627.14
2018-09-03T03:21:56.485Z,102629.79
2018-09-03T03:24:25.456Z,102629.72
2018-09-03T03:26:54.884Z,102635.45
2018-09-03T03:29:24.328Z,102635.02
2018-09-03T03:31:53.638Z,102632.80
2018-09-03T03:34:22.815Z,102627.93
2018-09-03T03:36:52.044Z,102622.63
2018-09-03T03:39:21.399Z,102619.98
2018-09-03T03:41:50.379Z,102615.08
2018-09-03T03:44:19.614Z,102612.86
2018-09-03T03:46:48.694Z,102615.08
2018-09-03T03:49:18.400Z,102609.78
2018-09-03T03:51:48.226Z,102606.73
2018-09-03T03:54:17.709Z,102609.39
2018-09-03T03:56:46.887Z,102607.59
2018-09-03T03:59:16.403Z,102605.81
2018-09-03T04:01:45.613Z,102608.88
2018-09-03T04:04:14.684Z,102609.78
2018-09-03T04:06:44.600Z,102605.34
2018-09-03T04:09:14.128Z,102496.11
2018-09-03T04:11:43.692Z,102607.52
2018-09-03T04:14:12.899Z,102614.11
2018-09-03T04:16:42.023Z,102611.81
2018-09-03T04:19:11.397Z,102617.11
2018-09-03T04:21:40.602Z,102618.00
2018-09-03T04:24:09.946Z,102618.86
2018-09-03T04:26:39.849Z,102619.28
2018-09-03T04:29:09.757Z,102615.31
2018-09-03T04:31:39.259Z,102617.06
2018-09-03T04:34:08.261Z,102622.41
2018-09-03T04:36:37.950Z,102621.50
2018-09-03T04:39:09.930Z,102613.60
2018-09-03T04:41:39.028Z,102619.33
2018-09-03T04:44:08.831Z,102618.43
2018-09-03T04:46:37.812Z,102617.53
2018-09-03T04:49:07.233Z,102623.30
2018-09-03T04:51:36.688Z,102618.86
2018-09-03T04:54:06.057Z,102623.72
2018-09-03T04:56:35.588Z,102630.42
2018-09-03T04:59:05.160Z,102626.92
2018-09-03T05:01:34.566Z,102631.36
2018-09-03T05:04:04.288Z,102627.39
2018-09-03T05:06:33.982Z,102627.89
2018-09-03T05:09:03.178Z,102631.47
2018-09-03T05:11:32.465Z,102620.84
2018-09-03T05:14:01.464Z,102623.09
2018-09-03T05:16:30.862Z,102624.92
2018-09-03T05:18:59.788Z,102620.98
2018-09-03T05:21:29.083Z,102624.53
2018-09-03T05:23:58.201Z,102622.27
2018-09-03T05:26:27.344Z,102624.03
2018-09-03T05:28:56.424Z,102625.81
2018-09-03T05:31:25.669Z,102629.79
2018-09-03T05:33:54.967Z,102632.05
2018-09-03T05:36:24.298Z,102630.72
2018-09-03T05:38:53.382Z,102629.47
2018-09-03T05:41:22.745Z,102622.87
2018-09-03T05:43:52.031Z,102625.98
2018-09-03T05:46:21.020Z,102623.80
2018-09-03T05:48:50.338Z,102622.08
2018-09-03T05:51:19.457Z,102622.10
2018-09-03T05:53:48.519Z,102622.13
2018-09-03T05:56:18.683Z,102609.74
2018-09-03T05:58:48.015Z,102624.00
2018-09-03T06:01:17.347Z,102623.14
2018-09-03T06:03:46.705Z,102623.20
2018-09-03T06:06:15.911Z,102624.97
2018-09-03T06:08:45.092Z,102622.38
2018-09-03T06:11:14.359Z,102618.88
2018-09-03T06:13:43.767Z,102622.49
2018-09-03T06:16:12.814Z,102624.34
2018-09-03T06:18:42.024Z,102622.58
2018-09-03T06:21:11.087Z,102623.95
2018-09-03T06:23:40.163Z,102627.05
2018-09-03T06:26:09.413Z,102623.99
2018-09-03T06:28:38.343Z,102626.69
2018-09-03T06:31:07.627Z,102626.27
2018-09-03T06:33:36.906Z,102623.61
2018-09-03T06:36:06.368Z,102622.33
2018-09-03T06:38:35.300Z,102627.66
2018-09-03T06:41:05.360Z,102625.92
2018-09-03T06:43:34.339Z,102626.41
2018-09-03T06:46:03.370Z,102625.53
2018-09-03T06:48:32.479Z,102621.56
2018-09-03T06:51:01.383Z,102618.45
2018-09-03T06:53:30.818Z,102618.03
2018-09-03T06:55:59.870Z,102616.67
2018-09-03T06:58:28.826Z,102612.25
2018-09-03T07:00:57.784Z,102614.03
2018-09-03T07:03:27.374Z,102615.80
2018-09-03T07:05:56.275Z,102614.90
2018-09-03T07:08:25.357Z,102609.58
2018-09-03T07:10:54.606Z,102615.33
2018-09-03T07:13:23.607Z,102610.89
2018-09-03T07:15:52.661Z,102603.75
2018-09-03T07:18:22.455Z,102611.27
2018-09-03T07:20:51.630Z,102606.86
2018-09-03T07:23:21.802Z,102603.28
2018-09-03T07:25:51.008Z,102599.28
2018-09-03T07:28:20.076Z,102603.22
2018-09-03T07:30:49.209Z,102606.29
2018-09-03T07:33:18.494Z,102604.50
2018-09-03T07:35:47.713Z,102604.48
2018-09-03T07:38:16.966Z,102606.20
2018-09-03T07:40:46.164Z,102604.84
2018-09-03T07:43:15.458Z,102606.61
2018-09-03T07:45:44.514Z,102597.67
2018-09-03T07:48:13.825Z,102596.26
2018-09-03T07:50:42.760Z,102586.01
2018-09-03T07:53:11.843Z,102583.30
2018-09-03T07:55:41.560Z,102587.73
2018-09-03T07:58:10.945Z,102587.71
2018-09-03T08:00:40.048Z,102587.17
2018-09-03T08:03:09.173Z,102589.36
2018-09-03T08:05:38.173Z,102581.77
2018-09-03T08:08:07.589Z,102579.91
2018-09-03T08:10:36.838Z,102579.90
2018-09-03T08:13:06.194Z,102579.44
2018-09-03T08:15:35.650Z,102576.27
2018-09-03T08:18:05.116Z,102573.14
2018-09-03T08:20:33.984Z,102568.62
2018-09-03T08:23:02.948Z,102564.59
2018-09-03T08:25:31.972Z,102543.34
2018-09-03T08:28:00.899Z,102563.53
2018-09-03T08:30:29.962Z,102557.84
2018-09-03T08:32:59.196Z,102549.73
2018-09-03T08:35:28.148Z,102553.61
2018-09-03T08:37:57.187Z,102557.88
2018-09-03T08:40:26.332Z,102554.08
2018-09-03T08:42:55.299Z,102559.65
2018-09-03T08:45:24.292Z,102557.70
2018-09-03T08:47:53.373Z,102556.65
2018-09-03T08:50:22.466Z,102554.35
2018-09-03T08:52:51.459Z,102551.84
2018-09-03T08:55:20.278Z,102549.22
2018-09-03T08:57:49.353Z,102550.06
2018-09-03T09:00:18.823Z,102554.91
2018-09-03T09:02:48.309Z,102544.91
2018-09-03T09:05:17.809Z,102546.76
2018-09-03T09:07:47.286Z,102541.72
2018-09-03T09:10:16.505Z,102535.25
2018-09-03T09:12:45.346Z,102534.16
2018-09-03T09:15:14.284Z,102530.41
2018-09-03T09:17:43.492Z,102525.65
2018-09-03T09:20:12.377Z,102526.00
2018-09-03T09:22:41.585Z,102518.38
2018-09-03T09:25:10.750Z,102519.22
2018-09-03T09:27:39.654Z,102515.66
2018-09-03T09:30:08.688Z,102511.87
2018-09-03T09:32:37.902Z,102507.13
2018-09-03T09:35:06.916Z,102501.65
2018-09-03T09:37:35.967Z,102499.43
2018-09-03T09:40:06.218Z,102489.67
2018-09-03T09:42:35.331Z,102496.09
2018-09-03T09:45:04.302Z,102486.59
2018-09-03T09:47:33.425Z,102484.03
2018-09-03T09:50:02.443Z,102484.95
2018-09-03T09:52:31.605Z,102483.16
2018-09-03T09:55:00.848Z,102480.87
2018-09-03T09:57:29.883Z,102483.16
2018-09-03T09:59:58.870Z,102474.06
2018-09-03T10:02:28.093Z,102479.30
2018-09-03T10:04:57.371Z,102475.70
2018-09-03T10:07:26.374Z,102467.25
2018-09-03T10:09:55.719Z,102471.53
2018-09-03T10:12:30.080Z,102465.05
2018-09-03T10:14:59.274Z,102458.80
2018-09-03T10:17:28.828Z,102458.80
2018-09-03T10:19:58.038Z,102456.51
2018-09-03T10:22:27.437Z,102460.86
2018-09-03T10:24:56.462Z,102456.26
2018-09-03T10:27:25.435Z,102454.33
2018-09-03T10:29:54.640Z,102451.53
2018-09-03T10:32:23.838Z,102457.02
2018-09-03T10:34:52.609Z,102442.98
2018-09-03T10:37:21.837Z,102447.34
2018-09-03T10:39:50.779Z,102436.58
2018-09-03T10:42:24.932Z,102432.45
2018-09-03T10:47:46.963Z,102424.23
2018-09-03T10:50:16.146Z,102426.80
2018-09-03T10:52:45.026Z,102418.83
2018-09-03T10:55:13.908Z,102425.00
2018-09-03T10:57:42.907Z,102419.05
2018-09-03T11:00:11.901Z,102408.86
2018-09-03T11:02:41.019Z,102409.53
2018-09-03T11:05:10.177Z,102410.28
2018-09-03T11:07:39.832Z,102401.12
2018-09-03T11:10:08.934Z,102382.92
2018-09-03T11:12:38.163Z,102395.59
2018-09-03T11:15:07.177Z,102400.09
2018-09-03T11:17:36.608Z,102390.48
2018-09-03T11:20:08.335Z,102398.74
2018-09-03T11:22:37.545Z,102390.71
2018-09-03T11:25:06.683Z,102386.69
2018-09-03T11:27:36.036Z,102388.00
2018-09-03T11:30:06.035Z,102386.42
2018-09-03T11:32:35.119Z,102386.77
2018-09-03T11:35:04.133Z,102383.08
2018-09-03T11:37:33.495Z,102375.22
2018-09-03T11:40:02.622Z,102372.45
2018-09-03T11:42:31.507Z,102373.16
2018-09-03T11:45:00.713Z,102370.31
2018-09-03T11:47:29.660Z,102364.37
2018-09-03T11:49:58.731Z,102357.27
2018-09-03T11:52:27.828Z,102359.73
2018-09-03T11:54:56.810Z,102361.47
2018-09-03T11:57:25.687Z,102352.67
2018-09-03T11:59:54.748Z,102344.64
2018-09-03T12:02:23.652Z,102345.56
2018-09-03T12:04:52.707Z,102356.83
2018-09-03T12:07:23.161Z,102352.09
2018-09-03T12:09:52.410Z,102352.92
2018-09-03T12:12:21.313Z,102347.93
2018-09-03T12:17:43.004Z,102344.47
2018-09-03T12:20:12.123Z,102338.66
2018-09-03T12:22:41.035Z,102339.20
2018-09-03T12:25:10.291Z,102336.89
2018-09-03T12:27:39.296Z,102345.66
2018-09-03T12:30:08.954Z,102334.81
2018-09-03T12:32:38.126Z,102328.31
2018-09-03T12:35:07.515Z,102339.76
2018-09-03T12:37:36.569Z,102106.19
2018-09-03T12:40:06.260Z,102339.76
2018-09-03T12:42:35.432Z,102338.60
2018-09-03T12:45:04.403Z,102339.61
2018-09-03T12:47:33.686Z,102333.55
2018-09-03T12:50:02.619Z,102329.76
2018-09-03T12:52:31.495Z,102329.56
2018-09-03T12:55:00.536Z,102318.80
2018-09-03T12:57:29.376Z,102317.81
2018-09-03T13:00:05.150Z,102310.53
2018-09-03T13:02:27.423Z,102315.79
2018-09-03T13:04:56.429Z,102312.60
2018-09-03T13:07:25.397Z,102306.38
2018-09-03T13:09:54.275Z,102300.22
2018-09-03T13:12:23.213Z,102296.33
2018-09-03T13:14:52.357Z,102289.52
2018-09-03T13:17:21.257Z,102295.76
2018-09-03T13:19:51.199Z,102302.95
2018-09-03T13:22:20.398Z,102291.59
2018-09-03T13:24:49.231Z,102294.31
2018-09-03T13:27:18.154Z,102189.48
2018-09-03T13:29:47.132Z,102284.45
2018-09-03T13:32:16.661Z,102283.02
2018-09-03T13:34:45.541Z,102278.41
2018-09-03T13:37:14.703Z,102275.93
2018-09-03T13:39:44.079Z,102270.91
2018-09-03T13:42:13.012Z,102264.16
2018-09-03T13:44:41.932Z,102257.56
2018-09-03T13:47:10.889Z,102259.41
2018-09-03T13:49:40.033Z,102256.44
2018-09-03T13:52:09.071Z,102258.61
2018-09-03T13:54:38.039Z,102254.88
2018-09-03T13:57:07.024Z,102243.02
2018-09-03T13:59:36.170Z,102243.23
2018-09-03T14:02:05.522Z,102245.24
2018-09-03T14:04:34.615Z,102239.63
2018-09-03T14:07:03.457Z,102239.50
2018-09-03T14:09:33.643Z,102243.95
2018-09-03T14:12:03.009Z,102238.53
2018-09-03T14:14:32.067Z,102239.50
2018-09-03T14:17:01.127Z,102231.76
2018-09-03T14:19:30.095Z,102239.56
2018-09-03T14:21:59.405Z,102242.11
2018-09-03T14:24:28.428Z,102241.98
2018-09-03T14:26:57.543Z,102254.70
2018-09-03T14:29:26.468Z,102250.59
2018-09-03T14:31:55.408Z,102250.53
2018-09-03T14:34:24.443Z,102250.46
2018-09-03T14:36:53.390Z,102246.11
2018-09-03T14:39:23.504Z,102241.28
2018-09-03T14:41:52.860Z,102253.34
2018-09-03T14:44:22.146Z,102241.80
2018-09-03T14:46:51.036Z,102236.58
2018-09-03T14:49:20.089Z,102241.20
2018-09-03T14:51:49.017Z,102246.39
2018-09-03T14:54:18.457Z,102243.08
2018-09-03T14:56:47.458Z,102237.83
2018-09-03T14:59:16.588Z,102232.41
2018-09-03T15:01:45.760Z,102231.85
2018-09-03T15:04:15.102Z,102236.27
2018-09-03T15:06:44.000Z,102209.06
2018-09-03T15:09:13.909Z,102226.86
2018-09-03T15:11:43.198Z,102226.89
2018-09-03T15:14:12.505Z,102227.59
2018-09-03T15:16:41.734Z,102229.81
2018-09-03T15:19:11.200Z,102232.95
2018-09-03T15:21:40.454Z,102227.53
2018-09-03T15:24:09.880Z,102228.98
2018-09-03T15:26:39.486Z,102231.38
2018-09-03T15:29:08.914Z,102237.88
2018-09-03T15:31:38.367Z,102234.38
2018-09-03T15:34:07.356Z,102232.72
2018-09-03T15:36:36.451Z,102236.61
2018-09-03T15:39:08.524Z,102237.88
2018-09-03T15:41:37.824Z,102240.03
2018-09-03T15:44:06.952Z,102124.36
2018-09-03T15:46:36.203Z,102238.77
2018-09-03T15:49:06.012Z,102237.92
2018-09-03T15:51:34.960Z,102236.92
2018-09-03T15:54:04.550Z,102242.20
2018-09-03T15:56:33.739Z,102235.91
2018-09-03T15:59:03.116Z,102229.77
2018-09-03T16:01:32.447Z,102229.49
2018-09-03T16:04:01.534Z,102230.02
2018-09-03T16:06:30.523Z,102224.91
2018-09-03T16:08:59.583Z,102228.42
2018-09-03T16:11:28.588Z,102225.05
2018-09-03T16:13:57.750Z,102229.09
2018-09-03T16:16:26.993Z,102230.39
2018-09-03T16:18:55.915Z,102228.75
2018-09-03T16:21:24.984Z,102229.51
2018-09-03T16:23:53.895Z,102223.63
2018-09-03T16:26:22.908Z,102221.17
2018-09-03T16:28:51.961Z,102215.30
2018-09-03T16:31:20.999Z,102215.70
2018-09-03T16:33:50.180Z,102218.88
2018-09-03T16:36:19.649Z,102218.11
2018-09-03T16:38:48.943Z,102214.06
2018-09-03T16:41:18.608Z,102208.63
2018-09-03T16:43:47.947Z,102204.83
2018-09-03T16:46:17.074Z,102205.62
2018-09-03T16:48:46.061Z,102199.48
2018-09-03T16:51:15.300Z,102199.48
2018-09-03T16:53:44.126Z,102200.69
2018-09-03T16:56:13.708Z,102200.02
2018-09-03T16:58:42.995Z,102199.83
2018-09-03T17:01:12.367Z,102191.81
2018-09-03T17:03:41.284Z,102197.34
2018-09-03T17:06:10.682Z,102191.88
2018-09-03T17:08:39.680Z,102190.47
2018-09-03T17:11:08.661Z,102189.16
2018-09-03T17:13:37.625Z,102191.94
2018-09-03T17:16:06.512Z,102191.59
2018-09-03T17:18:35.596Z,102182.64
2018-09-03T17:21:04.597Z,102182.14
2018-09-03T17:23:33.903Z,102166.03
2018-09-03T17:26:02.973Z,102181.45
2018-09-03T17:28:32.441Z,102181.58
2018-09-03T17:31:01.637Z,102189.21
2018-09-03T17:33:30.910Z,102184.31
2018-09-03T17:36:00.246Z,102184.75
2018-09-03T17:38:29.306Z,102189.87
2018-09-03T17:40:58.635Z,102188.54
2018-09-03T17:43:27.792Z,102184.30
2018-09-03T17:45:57.296Z,102183.80
2018-09-03T17:48:26.758Z,102178.45
2018-09-03T17:50:56.064Z,102178.41
2018-09-03T17:53:25.005Z,102176.63
2018-09-03T17:55:54.123Z,102178.45
2018-09-03T17:58:23.116Z,102178.61
2018-09-03T18:00:52.778Z,102184.02
2018-09-03T18:03:22.334Z,102176.05
2018-09-03T18:05:51.177Z,102175.21
2018-09-03T18:08:20.907Z,102178.45
2018-09-03T18:10:50.805Z,102179.85
2018-09-03T18:13:20.280Z,102181.19
2018-09-03T18:15:49.312Z,102181.63
2018-09-03T18:18:18.590Z,102189.70
2018-09-03T18:20:48.059Z,102171.92
2018-09-03T18:23:17.178Z,102178.11
2018-09-03T18:25:46.280Z,102177.61
2018-09-03T18:28:15.911Z,102178.22
2018-09-03T18:30:45.392Z,102185.48
2018-09-03T18:33:14.484Z,102180.98
2018-09-03T18:35:43.624Z,102180.19
2018-09-03T18:38:13.727Z,102177.52
2018-09-03T18:40:43.609Z,102173.13
2018-09-03T18:43:12.646Z,102174.11
2018-09-03T18:45:41.552Z,102177.57
2018-09-03T18:48:19.013Z,102181.14
2018-09-03T18:50:49.258Z,102175.00
2018-09-03T18:53:18.564Z,102179.45
2018-09-03T18:55:48.491Z,102170.10
2018-09-03T18:58:18.229Z,102173.27
2018-09-03T19:00:47.458Z,102177.73
2018-09-03T19:03:17.488Z,102173.31
2018-09-03T19:05:46.809Z,102167.19
2018-09-03T19:08:16.794Z,102166.20
2018-09-03T19:10:46.316Z,102167.13
2018-09-03T19:13:15.822Z,102164.02
2018-09-03T19:15:44.947Z,102173.42
2018-09-03T19:18:14.111Z,102163.41
2018-09-03T19:20:43.475Z,102166.14
2018-09-03T19:23:12.517Z,102167.52
2018-09-03T19:25:41.658Z,102173.84
2018-09-03T19:28:10.696Z,102169.39
2018-09-03T19:30:40.076Z,102174.24
2018-09-03T19:33:09.201Z,102171.66
2018-09-03T19:35:39.061Z,102169.88
2018-09-03T19:38:08.261Z,102165.97
2018-09-03T19:40:37.275Z,102163.39
2018-09-03T19:43:06.283Z,102164.28
2018-09-03T19:45:36.166Z,102155.37
2018-09-03T19:48:05.372Z,102159.83
2018-09-03T19:50:34.781Z,102157.66
2018-09-03T19:53:04.051Z,102157.31
2018-09-03T19:55:33.013Z,102159.26
2018-09-03T19:58:07.643Z,102158.01
2018-09-03T20:00:36.832Z,102152.31
2018-09-03T20:03:06.069Z,102153.69
2018-09-03T20:05:35.590Z,102155.06
2018-09-03T20:08:04.675Z,102133.09
2018-09-03T20:10:33.876Z,102148.48
2018-09-03T20:13:03.938Z,102145.41
2018-09-03T20:15:33.001Z,102145.41
2018-09-03T20:18:02.375Z,102140.48
2018-09-03T20:20:31.716Z,102148.08
2018-09-03T20:23:00.881Z,102147.27
2018-09-03T20:25:30.042Z,102148.69
2018-09-03T20:27:59.158Z,102147.84
2018-09-03T20:30:28.440Z,102148.28
2018-09-03T20:32:58.041Z,102143.47
2018-09-03T20:35:27.059Z,102137.73
2018-09-03T20:37:56.652Z,102135.07
2018-09-03T20:40:25.673Z,102135.06
2018-09-03T20:42:54.859Z,102137.33
2018-09-03T20:45:23.979Z,102132.92
2018-09-03T20:47:59.702Z,102133.89
2018-09-03T20:50:28.751Z,102137.03
2018-09-03T20:52:58.437Z,102129.97
2018-09-03T20:55:27.563Z,102129.13
2018-09-03T20:57:56.627Z,102129.16
2018-09-03T21:00:25.525Z,102127.38
2018-09-03T21:02:54.483Z,102126.49
2018-09-03T21:05:24.151Z,102117.69
2018-09-03T21:07:53.422Z,102121.27
2018-09-03T21:10:22.806Z,102119.02
2018-09-03T21:12:51.815Z,102115.50
2018-09-03T21:15:20.938Z,102121.27
2018-09-03T21:17:49.816Z,102114.69
2018-09-03T21:20:19.409Z,102116.95
2018-09-03T21:22:48.497Z,102117.38
2018-09-03T21:25:17.501Z,102117.34
2018-09-03T21:27:46.541Z,102117.34
2018-09-03T21:30:16.521Z,102121.79
2018-09-03T21:32:45.497Z,102116.50
2018-09-03T21:35:14.503Z,102117.42
2018-09-03T21:37:43.835Z,102114.76
2018-09-03T21:40:12.755Z,102113.88
2018-09-03T21:42:41.609Z,102114.35
2018-09-03T21:45:10.574Z,102112.61
2018-09-03T21:47:39.725Z,102110.88
2018-09-03T21:50:08.926Z,102114.45
2018-09-03T21:52:39.034Z,102113.09
2018-09-03T21:55:08.691Z,102113.50
2018-09-03T21:57:37.886Z,102113.05
2018-09-03T22:00:06.976Z,102110.88
2018-09-03T22:02:36.119Z,102112.69
2018-09-03T22:05:05.387Z,102110.94
2018-09-03T22:07:34.484Z,102107.45
2018-09-03T22:10:03.440Z,102110.05
2018-09-03T22:12:32.630Z,102115.38
2018-09-03T22:15:01.757Z,102114.05
2018-09-03T22:17:30.760Z,102117.23
2018-09-03T22:19:59.797Z,102121.70
2018-09-03T22:22:28.854Z,102117.23
2018-09-03T22:24:57.854Z,102111.45
2018-09-03T22:27:27.099Z,102118.15
2018-09-03T22:29:56.218Z,102118.25
2018-09-03T22:32:25.487Z,102118.54
2018-09-03T22:34:54.468Z,102121.37
2018-09-03T22:37:24.451Z,102120.66
2018-09-03T22:39:53.449Z,102128.29
2018-09-03T22:42:26.159Z,102123.87
2018-09-03T22:44:56.506Z,102123.03
2018-09-03T22:47:25.492Z,102119.95
2018-09-03T22:49:54.386Z,102119.95
2018-09-03T22:52:23.561Z,102121.78
2018-09-03T22:54:52.499Z,102120.90
2018-09-03T22:57:21.441Z,102116.85
2018-09-03T22:59:50.657Z,102116.05
2018-09-03T23:02:19.610Z,102120.06
2018-09-03T23:04:48.766Z,102120.09
2018-09-03T23:07:17.934Z,102128.02
2018-09-03T23:09:47.236Z,102127.96
2018-09-03T23:12:16.857Z,102129.38
2018-09-03T23:14:45.811Z,102125.38
2018-09-03T23:17:14.737Z,102120.43
2018-09-03T23:19:43.737Z,102118.77
2018-09-03T23:22:12.681Z,102114.45
2018-09-03T23:24:41.568Z,102112.34
2018-09-03T23:27:10.554Z,102109.76
2018-09-03T23:29:39.772Z,102114.23
2018-09-03T23:32:09.103Z,102113.34
2018-09-03T23:34:38.034Z,102107.94
2018-09-03T23:37:07.012Z,102109.70
2018-09-03T23:39:36.004Z,102098.23
2018-09-03T23:42:05.206Z,102094.66
2018-09-03T23:44:34.184Z,101978.31
2018-09-03T23:47:03.137Z,102093.88
2018-09-03T23:49:32.136Z,102092.56
2018-09-03T23:52:01.206Z,102083.33
2018-09-03T23:54:30.071Z,102078.07
2018-09-03T23:56:58.969Z,102077.67
2018-09-03T23:59:28.030Z,102073.69
